WEATHER DATA

YESTERDAY
Time Temp. Dewp. Hum. Wind dir Wind speed Wind gust Bar. 1h Prec. 24h Prec.
00:03 20.2 17.6 85 246 1.9 3.1 1011 0.0000 0.0000
00:13 20 17.4 85 245 2.2 2.8 1011.1 0.0000 0.0000
00:23 19.8 17.4 86 233 1.7 3.1 1011 0.0000 0.0000
00:34 19.7 17.3 86 235 2.5 3.9 1011 0.0000 0.0000
00:43 19.6 17.4 87 236 2.8 4.2 1011.1 0.0000 0.0000
00:53 19.6 17.4 87 230 2.8 3.9 1010.7 0.0000 0.0000
01:04 19.6 17.6 88 235 2.8 3.9 1010.5 0.0000 0.0000
01:14 19.6 17.6 88 230 2.5 3.6 1010.4 0.0000 0.0000
01:23 19.6 17.6 88 232 2.5 3.3 1010.1 0.0000 0.0000
01:33 19.5 17.5 88 237 2.8 3.6 1010.3 0.0000 0.0000
01:44 19.4 17.4 88 230 2.5 3.9 1010.3 0.0000 0.0000
01:54 19.3 17.3 88 229 2.5 3.9 1010.2 0.0000 0.0000
02:04 19.2 17.3 89 236 2.8 3.9 1010.5 0.0000 0.0000
02:14 19.1 17.2 89 232 2.5 3.3 1010.4 0.0000 0.0000
02:24 19.1 17.2 89 234 2.8 3.9 1010.4 0.0000 0.0000
02:34 19.2 17.5 90 231 2.5 3.6 1010.4 0.0000 0.0000
02:44 19.2 17.5 90 235 2.2 3.6 1010.4 0.0000 0.0000
02:54 19.3 17.6 90 229 2.8 3.9 1010.6 0.0000 0.0000
03:04 19.4 17.7 90 234 3.1 4.2 1010.6 0.0000 0.0000
03:14 19.4 17.7 90 231 2.2 3.3 1010.3 0.0000 0.0000
03:24 19.5 17.8 90 243 3.6 4.7 1011 0.0000 0.0000
03:35 19.9 18.2 90 239 3.3 4.7 1011.2 0.0000 0.0000
03:44 20.3 18.4 89 240 3.9 5.6 1011.3 0.0000 0.0000
03:54 20.6 18.5 88 235 3.6 5 1011 0.0000 0.0000
04:05 20.8 18.4 86 234 3.1 3.9 1010.9 0.0000 0.0000
04:15 20.9 18.5 86 230 2.8 4.2 1010.6 0.0000 0.0000
04:25 20.9 18.5 86 224 2.5 3.6 1010.5 0.0000 0.0000
04:35 20.9 18.5 86 232 2.8 3.9 1010.7 0.0000 0.0000
04:45 20.8 18.6 87 230 2.8 4.2 1010.9 0.0000 0.0000
04:55 20.7 18.5 87 229 2.8 3.9 1010.9 0.0000 0.0000
05:05 20.5 18.3 87 230 2.5 3.3 1010.6 0.0000 0.0000
05:15 20.5 18.4 88 230 2.5 3.3 1010.5 0.0000 0.0000
05:25 20.5 18.4 88 233 2.8 4.4 1010.6 0.0000 0.0000
05:35 20.4 18.3 88 231 2.5 3.6 1010.6 0.0000 0.0000
05:45 20.4 18.5 89 232 2.5 3.6 1010.6 0.0000 0.0000
05:56 20.5 18.4 88 227 2.5 3.6 1010.5 0.0000 0.0000
06:05 20.6 18.5 88 235 2.8 3.9 1010.6 0.0000 0.0000
06:15 20.7 18.6 88 226 2.8 3.9 1010.6 0.0000 0.0000
06:26 20.9 19 89 228 2.5 3.6 1010.7 0.0000 0.0000
06:36 21.3 19.4 89 231 1.9 3.1 1010.6 0.0000 0.0000
06:45 21.6 19.5 88 230 1.9 2.8 1010.7 0.0000 0.0000
06:56 21.9 19.6 87 247 0.6 1.4 1010.6 0.0000 0.0000
07:06 22.1 19.6 86 218 0.8 1.4 1010.6 0.0000 0.0000
07:16 22.3 20 87 225 1.4 4.7 1010.6 0.0000 0.0000
07:25 22.9 20.2 85 263 2.8 5.6 1010.5 0.0000 0.0000
07:36 23.4 20.2 82 239 2.8 5.3 1010.4 0.0000 0.0000
07:46 23.6 19.5 78 265 3.1 4.7 1010.9 0.0000 0.0000
07:56 23.7 19.8 79 270 3.1 5.3 1010.7 0.0000 0.0000
08:06 23.9 20 79 230 3.3 4.7 1010.7 0.0000 0.0000
08:16 24.2 20.3 79 250 3.3 6.4 1010.9 0.0000 0.0000
08:26 24.7 20.4 77 270 3.3 6.7 1010.9 0.0000 0.0000
08:36 25.1 20.4 75 56 2.2 5.3 1010.9 0.0000 0.0000
08:47 25.6 20.6 74 85 3.1 7.2 1011 0.0000 0.0000
08:56 26.6 21.4 73 74 2.5 4.7 1011.1 0.0000 0.0000
09:06 27.5 21.5 70 340 1.9 3.6 1011.2 0.0000 0.0000
09:17 28 22 70 323 1.9 4.2 1011.2 0.0000 0.0000
09:27 27.9 21.9 70 104 3.1 5 1011.1 0.0000 0.0000
09:36 28.1 21.9 69 98 2.5 5 1011.2 0.0000 0.0000
09:46 28.7 22.2 68 0 1.7 3.3 1011.2 0.0000 0.0000
09:57 28.8 22.1 67 79 1.9 5.3 1011.2 0.0000 0.0000
10:07 29.4 21.6 63 12 1.7 2.8 1011.3 0.0000 0.0000
10:17 29.7 21.6 62 2.2 3.6 1011.3 0.0000 0.0000
10:27 29.5 22.2 65 14 1.1 1.4 1011.3 0.0000 0.0000
10:37 29.6 22.1 64 18 1.7 2.8 1011.3 0.0000 0.0000
10:47 29.6 21.5 62 27 1.7 3.1 1011.4 0.0000 0.0000
10:57 29.8 20.6 58 52 2.2 3.6 1011.4 0.0000 0.0000
11:08 30 21.4 60 344 1.9 3.6 1011.3 0.0000 0.0000
11:17 30.2 21.6 60 18 1.7 3.9 1011.3 0.0000 0.0000
11:27 30.4 21.2 58 4 1.9 3.9 1011.4 0.0000 0.0000
11:37 30.6 20.5 55 23 1.7 3.6 1011.4 0.0000 0.0000
11:48 31 20.3 53 26 2.2 4.4 1011.4 0.0000 0.0000
11:57 31.2 18.2 46 26 2.2 3.9 1011.5 0.0000 0.0000
12:07 31.1 18.1 46 2 1.7 4.2 1011.5 0.0000 0.0000
12:18 31.2 17.1 43 12 1.9 4.2 1011.5 0.0000 0.0000
12:28 31.1 17.8 45 1 1.9 5.3 1011.6 0.0000 0.0000
12:38 31.1 17.4 44 9 2.2 4.4 1011.6 0.0000 0.0000
12:48 31 18 46 10 1.9 3.9 1011.5 0.0000 0.0000
12:49 30.9 17.9 46 12 2.2 7.2 1011.5 0.0000 0.0000
13:00 30.7 18.4 48 24 2.2 4.2 1011.5 0.0000 0.0000
13:10 30.8 17.8 46 1.9 4.2 1011.4 0.0000 0.0000
13:20 30.9 18.9 49 29 1.9 4.2 1011.4 0.0000 0.0000
13:29 31 18.7 48 2.2 3.6 1011.4 0.0000 0.0000
13:40 31.2 18.9 48 20 2.5 4.7 1011.4 0.0000 0.0000
13:50 31.2 18.9 48 3.1 4.2 1011.3 0.0000 0.0000
14:00 31 18.4 47 9 2.8 5 1011.3 0.0000 0.0000
14:10 31.1 17.4 44 15 1.9 3.1 1011.3 0.0000 0.0000
14:20 31.3 18 45 50 1.9 5.3 1011.3 0.0000 0.0000
14:30 31.6 18.6 46 1.9 2.8 1011.2 0.0000 0.0000
14:40 31.5 18.8 47 20 2.5 3.6 1011.1 0.0000 0.0000
14:51 31.4 18.4 46 32 2.2 6.4 1011.1 0.0000 0.0000
15:00 31.4 18.4 46 10 2.2 5.3 1011 0.0000 0.0000
15:10 31.3 17.6 44 19 1.9 4.2 1011.1 0.0000 0.0000
15:21 31.4 18 45 29 2.2 3.6 1011.1 0.0000 0.0000
15:31 31.3 16.1 40 27 2.2 4.2 1011 0.0000 0.0000
15:40 31.1 16.7 42 16 2.5 5.6 1011.1 0.0000 0.0000
15:50 31.1 16.7 42 35 2.2 5.3 1011 0.0000 0.0000
16:01 31.2 17.9 45 24 1.9 4.4 1011 0.0000 0.0000
16:11 31 18.7 48 49 1.9 4.2 1011 0.0000 0.0000
16:21 31 18.7 48 22 2.2 3.9 1010.9 0.0000 0.0000
16:31 30.9 18.6 48 38 2.2 3.9 1011 0.0000 0.0000
16:41 30.8 18.9 49 77 2.2 5.3 1011.1 0.0000 0.0000
16:51 30.8 18.9 49 29 1.9 3.9 1011.1 0.0000 0.0000
17:01 30.8 18.9 49 23 1.9 4.4 1011.1 0.0000 0.0000
17:12 30.7 19.1 50 51 2.2 3.9 1011 0.0000 0.0000
17:21 30.3 18.7 50 55 2.5 4.4 1011 0.0000 0.0000
17:31 30.3 18.7 50 82 2.2 5.3 1010.9 0.0000 0.0000
17:42 30.2 18.9 51 35 1.7 2.8 1010.9 0.0000 0.0000
17:52 30.1 18.5 50 64 2.8 6.1 1011 0.0000 0.0000
18:01 30 18.4 50 57 1.9 4.7 1011.1 0.0000 0.0000
18:11 29.8 18.6 51 17 1.9 5 1011.1 0.0000 0.0000
18:22 29.5 18.9 53 70 2.5 6.7 1011.1 0.0000 0.0000
18:32 29.4 18.5 52 48 2.2 5.6 1011.1 0.0000 0.0000
18:46 29.3 18.7 53 60 2.2 7.2 1011.2 0.0000 0.0000
18:56 29.2 18.6 53 57 2.2 4.2 1011.3 0.0000 0.0000
19:05 29 18.5 53 43 2.2 3.9 1011.4 0.0000 0.0000
19:16 28.9 18.1 52 49 2.2 5 1011.6 0.0000 0.0000
19:26 28.7 18.5 54 65 2.2 4.2 1011.6 0.0000 0.0000
19:36 28.5 18.6 55 90 2.5 5.8 1011.5 0.0000 0.0000
19:46 28.2 18.3 55 71 2.5 6.9 1011.6 0.0000 0.0000
19:56 27.9 18.3 56 244 3.3 5 1011.6 0.0000 0.0000
20:06 27.5 18.5 58 248 2.2 4.4 1011.7 0.0000 0.0000
20:16 27.3 18.9 60 245 2.8 5 1011.9 0.0000 0.0000
20:26 26.9 18.5 60 231 3.3 6.4 1011.9 0.0000 0.0000
20:36 26.6 18.7 62 216 0.6 0.8 1011.9 0.0000 0.0000
20:46 26 18.7 64 230 0.8 1.4 1011.9 0.0000 0.0000
20:56 25.6 18.3 64 270 1.1 1.7 1011.9 0.0000 0.0000
21:07 25.3 18 64 209 1.4 2.2 1011.9 0.0000 0.0000
21:26 24.3 18.7 71 241 1.9 2.8 1011.9 0.0000 0.0000
21:37 23.8 18.5 72 243 1.7 2.8 1011.8 0.0000 0.0000
21:47 23.2 17.7 71 239 2.2 3.3 1011.8 0.0000 0.0000
21:57 22.7 17.6 73 236 1.9 3.1 1011.9 0.0000 0.0000
22:06 22.4 17.5 74 239 1.9 3.1 1012 0.0000 0.0000
22:17 22 17.4 75 243 1.9 3.1 1012.1 0.0000 0.0000
22:27 21.7 17.3 76 255 1.9 3.6 1012.2 0.0000 0.0000
22:37 21.4 17.2 77 237 1.9 3.1 1012.1 0.0000 0.0000
22:47 21.2 17.2 78 240 1.7 3.1 1012.2 0.0000 0.0000
22:57 21 17 78 244 2.2 3.3 1012.2 0.0000 0.0000
23:07 20.8 17 79 235 2.5 4.4 1012.2 0.0000 0.0000
23:17 20.6 16.8 79 240 3.3 4.2 1012.3 0.0000 0.0000
23:28 20.3 16.7 80 230 2.5 3.9 1012.2 0.0000 0.0000
23:37 20.2 16.8 81 227 2.8 3.6 1012 0.0000 0.0000
23:47 20.1 16.7 81 238 3.1 4.4 1012.2 0.0000 0.0000
23:58 19.8 16.6 82 238 3.1 4.2 1012.3 0.0000

DAY STATISTIC

2021-06-21
TEMPERATURE
AVERAGE
25.6
HIGH
31.6
14:30
LOW
19.1
02:14
PRESSURE
AVERAGE
1011.2
HIGH
1012.3
23:17
LOW
1010.1
01:23
DEWPOINT
AVERAGE
18.7
HIGH
22.2
09:46
LOW
16.1
15:31
HUMIDITY
AVERAGE
68
HIGH
90
02:34
LOW
40
15:31
WIND SPEED
AVERAGE
2.3
HIGH
3.9
03:44
WIND GUST
AVERAGE
4.1
HIGH
7.2
08:47
WIND DIRECTION
PREVAILING
SW
46.9%
N
16.1
NE
20.3
E
7.0
SE
0.0
S
0.0
SW
46.9
W
5.6
NW
0.7
PRECIPITATION
RAIN HOUR
0.0
RAIN DAY
0.0
TEMPERATURE (°C)
LOW
19.1
HIGH
31.6
AVERAGE
25.6
PRESSURE (hpa)
LOW
1010.1
HIGH
1012.3
AVERAGE
1011.2
DEVICE